createdAt,value
2023-02-08T00:01:30.838Z,58.77
2023-02-08T00:03:59.728Z,59.77
2023-02-08T00:06:28.445Z,55.20
2023-02-08T00:08:58.452Z,59.33
2023-02-08T00:11:27.128Z,56.63
2023-02-08T00:13:55.493Z,61.03
2023-02-08T00:16:24.675Z,54.53
2023-02-08T00:18:53.106Z,55.73
2023-02-08T00:21:22.084Z,58.67
2023-02-08T00:23:50.472Z,55.07
2023-02-08T00:26:20.480Z,52.37
2023-02-08T00:28:49.034Z,55.23
2023-02-08T00:31:19.859Z,55.63
2023-02-08T00:33:48.355Z,55.80
2023-02-08T00:36:17.119Z,59.00
2023-02-08T00:38:45.691Z,61.37
2023-02-08T00:41:14.389Z,61.07
2023-02-08T00:43:44.149Z,60.33
2023-02-08T00:46:12.930Z,61.60
2023-02-08T00:48:41.324Z,57.67
2023-02-08T00:51:13.536Z,64.60
2023-02-08T00:53:44.034Z,63.83
2023-02-08T00:56:15.022Z,61.37
2023-02-08T00:58:45.378Z,64.43
2023-02-08T01:01:14.792Z,61.77
2023-02-08T01:03:44.664Z,63.47
2023-02-08T01:06:16.478Z,63.77
2023-02-08T01:08:46.152Z,64.13
2023-02-08T01:11:17.619Z,64.20
2023-02-08T01:13:47.751Z,78.07
2023-02-08T01:16:20.404Z,78.23
2023-02-08T01:18:51.464Z,74.33
2023-02-08T01:21:21.605Z,83.43
2023-02-08T01:23:50.610Z,75.33
2023-02-08T01:26:34.846Z,78.20
2023-02-08T01:29:05.038Z,74.90
2023-02-08T01:31:35.698Z,80.70
2023-02-08T01:34:05.719Z,81.20
2023-02-08T01:36:35.095Z,72.40
2023-02-08T01:39:04.206Z,70.60
2023-02-08T01:41:34.785Z,78.53
2023-02-08T01:44:08.833Z,80.83
2023-02-08T01:46:38.919Z,82.80
2023-02-08T01:49:12.710Z,80.70
2023-02-08T01:51:46.394Z,71.93
2023-02-08T01:54:18.226Z,72.03
2023-02-08T01:56:48.176Z,71.37
2023-02-08T01:59:23.492Z,71.67
2023-02-08T02:01:55.556Z,78.27
2023-02-08T02:04:24.201Z,72.40
2023-02-08T02:06:57.156Z,71.87
2023-02-08T02:09:29.929Z,78.97
2023-02-08T02:12:00.104Z,70.40
2023-02-08T02:14:30.334Z,71.27
2023-02-08T02:17:01.078Z,70.97
2023-02-08T02:19:41.667Z,80.43
2023-02-08T02:22:41.265Z,84.47
2023-02-08T02:25:40.084Z,81.80
2023-02-08T02:28:46.371Z,82.73
2023-02-08T02:31:44.455Z,83.23
2023-02-08T02:34:19.637Z,87.67
2023-02-08T02:36:54.275Z,86.17
2023-02-08T02:39:33.977Z,82.77
2023-02-08T02:42:29.007Z,80.30
2023-02-08T02:45:07.339Z,82.87
2023-02-08T02:47:42.316Z,77.63
2023-02-08T02:50:17.785Z,75.87
2023-02-08T02:52:51.161Z,77.17
2023-02-08T02:55:24.292Z,80.70
2023-02-08T02:57:57.755Z,75.63
2023-02-08T03:00:28.927Z,72.97
2023-02-08T03:02:59.198Z,82.23
2023-02-08T03:05:30.181Z,80.43
2023-02-08T03:08:15.485Z,73.30
2023-02-08T03:11:19.845Z,73.23
2023-02-08T03:14:26.187Z,69.80
2023-02-08T03:17:07.774Z,71.33
2023-02-08T03:19:42.689Z,73.83
2023-02-08T03:22:15.787Z,78.77
2023-02-08T03:24:52.957Z,75.90
2023-02-08T03:27:29.744Z,75.87
2023-02-08T03:30:03.078Z,68.50
2023-02-08T03:32:39.904Z,70.53
2023-02-08T03:35:16.305Z,71.03
2023-02-08T03:37:49.807Z,74.23
2023-02-08T03:40:22.263Z,72.83
2023-02-08T03:42:53.744Z,70.57
2023-02-08T03:45:28.158Z,73.70
2023-02-08T03:48:01.121Z,68.10
2023-02-08T03:50:34.386Z,72.27
2023-02-08T03:53:04.983Z,70.20
2023-02-08T03:55:37.165Z,80.93
2023-02-08T03:58:12.462Z,69.20
2023-02-08T04:00:45.440Z,68.50
2023-02-08T04:03:18.359Z,85.33
2023-02-08T04:05:48.247Z,92.50
2023-02-08T04:08:17.168Z,89.60
2023-02-08T04:10:46.070Z,90.63
2023-02-08T04:13:14.760Z,83.83
2023-02-08T04:15:44.302Z,79.97
2023-02-08T04:18:13.337Z,85.20
2023-02-08T04:20:41.865Z,96.37
2023-02-08T04:23:12.037Z,87.70
2023-02-08T04:25:40.468Z,95.00
2023-02-08T04:28:09.278Z,85.03
2023-02-08T04:30:37.633Z,95.90
2023-02-08T04:33:06.558Z,93.20
2023-02-08T04:35:34.964Z,70.97
2023-02-08T04:38:03.606Z,91.03
2023-02-08T04:40:33.433Z,101.00
2023-02-08T04:43:02.454Z,83.73
2023-02-08T04:45:32.147Z,86.20
2023-02-08T04:48:03.401Z,89.87
2023-02-08T04:50:32.295Z,85.47
2023-02-08T04:53:00.991Z,87.30
2023-02-08T04:55:29.391Z,90.20
2023-02-08T04:58:00.048Z,84.53
2023-02-08T05:00:28.571Z,81.87
2023-02-08T05:02:59.295Z,86.10
2023-02-08T05:05:28.208Z,81.13
2023-02-08T05:07:57.337Z,89.07
2023-02-08T05:10:26.496Z,86.07
2023-02-08T05:12:55.194Z,87.07
2023-02-08T05:15:24.947Z,91.80
2023-02-08T05:17:53.599Z,81.73
2023-02-08T05:20:22.581Z,76.30
2023-02-08T05:22:51.331Z,85.43
2023-02-08T05:25:19.820Z,88.20
2023-02-08T05:27:48.862Z,92.13
2023-02-08T05:30:17.461Z,85.80
2023-02-08T05:32:47.528Z,81.27
2023-02-08T05:35:16.070Z,83.20
2023-02-08T05:37:44.750Z,90.70
2023-02-08T05:40:13.496Z,82.77
2023-02-08T05:42:43.176Z,93.47
2023-02-08T05:45:11.890Z,86.60
2023-02-08T05:47:40.569Z,86.13
2023-02-08T05:50:10.849Z,96.77
2023-02-08T05:52:39.625Z,96.63
2023-02-08T05:55:08.944Z,88.10
2023-02-08T05:57:38.121Z,81.70
2023-02-08T06:00:08.073Z,83.57
2023-02-08T06:02:44.802Z,83.03
2023-02-08T06:05:14.771Z,83.20
2023-02-08T06:07:43.572Z,79.20
2023-02-08T06:10:12.292Z,76.80
2023-02-08T06:12:41.294Z,77.03
2023-02-08T06:15:10.618Z,68.90
2023-02-08T06:17:39.355Z,80.57
2023-02-08T06:20:08.541Z,85.13
2023-02-08T06:22:39.150Z,81.60
2023-02-08T06:25:08.674Z,75.07
2023-02-08T06:27:37.462Z,87.00
2023-02-08T06:30:06.413Z,77.73
2023-02-08T06:32:35.313Z,78.93
2023-02-08T06:35:03.816Z,85.10
2023-02-08T06:37:32.537Z,90.43
2023-02-08T06:40:02.931Z,62.80
2023-02-08T06:42:31.742Z,82.67
2023-02-08T06:45:00.171Z,67.70
2023-02-08T06:47:29.071Z,70.70
2023-02-08T06:49:57.439Z,81.03
2023-02-08T06:52:26.165Z,67.60
2023-02-08T06:54:54.553Z,76.07
2023-02-08T06:57:24.674Z,72.97
2023-02-08T06:59:53.551Z,69.83
2023-02-08T07:02:23.054Z,72.23
2023-02-08T07:04:51.630Z,67.77
2023-02-08T07:07:20.400Z,64.30
2023-02-08T07:09:48.831Z,66.90
2023-02-08T07:12:17.743Z,61.07
2023-02-08T07:14:47.518Z,65.83
2023-02-08T07:17:16.157Z,84.10
2023-02-08T07:19:44.591Z,71.27
2023-02-08T07:22:13.281Z,65.30
2023-02-08T07:24:42.829Z,74.17
2023-02-08T07:27:13.000Z,79.87
2023-02-08T07:29:41.920Z,66.57
2023-02-08T07:32:13.610Z,80.93
2023-02-08T07:34:42.138Z,88.27
2023-02-08T07:37:10.864Z,71.00
2023-02-08T07:39:39.468Z,77.70
2023-02-08T07:42:09.434Z,71.90
2023-02-08T07:44:48.436Z,72.97
2023-02-08T07:47:18.645Z,76.17
2023-02-08T07:49:47.044Z,152.27
2023-02-08T07:52:15.728Z,96.30
2023-02-08T07:54:44.092Z,91.80
2023-02-08T07:57:12.857Z,86.67
2023-02-08T07:59:41.277Z,71.70
2023-02-08T08:02:10.616Z,63.47
2023-02-08T08:04:40.425Z,56.40
2023-02-08T08:07:09.051Z,55.50
2023-02-08T08:09:37.496Z,62.37
2023-02-08T08:12:06.415Z,72.40
2023-02-08T08:14:34.766Z,56.90
2023-02-08T08:17:03.425Z,59.63
2023-02-08T08:19:31.893Z,59.67
2023-02-08T08:22:01.880Z,56.07
2023-02-08T08:24:31.701Z,55.80
2023-02-08T08:27:00.700Z,58.97
2023-02-08T08:29:29.321Z,61.57
2023-02-08T08:31:57.996Z,66.90
2023-02-08T08:34:29.931Z,65.77
2023-02-08T08:36:58.944Z,61.50
2023-02-08T08:39:29.365Z,53.50
2023-02-08T08:41:59.403Z,52.80
2023-02-08T08:44:27.922Z,57.17
2023-02-08T08:46:57.107Z,55.23
2023-02-08T08:49:25.956Z,53.97
2023-02-08T08:51:55.068Z,55.47
2023-02-08T08:54:23.636Z,54.00
2023-02-08T08:56:53.726Z,50.97
2023-02-08T08:59:22.275Z,49.10
2023-02-08T09:01:50.945Z,53.60
2023-02-08T09:04:19.913Z,56.60
2023-02-08T09:06:48.593Z,53.67
2023-02-08T09:09:17.050Z,40.57
2023-02-08T09:11:45.679Z,38.90
2023-02-08T09:14:15.505Z,35.33
2023-02-08T09:16:47.467Z,29.63
2023-02-08T09:19:16.976Z,24.93
2023-02-08T09:21:46.411Z,60.63
2023-02-08T09:24:14.932Z,122.70
2023-02-08T09:26:45.788Z,45.00
2023-02-08T09:29:15.640Z,46.10
2023-02-08T09:31:44.374Z,28.53
2023-02-08T09:34:12.880Z,20.63
2023-02-08T09:36:42.345Z,28.20
2023-02-08T09:39:13.665Z,26.03
2023-02-08T09:41:57.908Z,30.17
2023-02-08T09:44:34.132Z,34.53
2023-02-08T09:47:06.996Z,24.63
2023-02-08T09:49:40.570Z,33.80
2023-02-08T09:52:14.430Z,33.77
2023-02-08T09:54:48.052Z,28.37
2023-02-08T09:57:21.928Z,31.97
2023-02-08T09:59:56.712Z,29.13
2023-02-08T10:02:28.501Z,34.97
2023-02-08T10:05:01.692Z,30.70
2023-02-08T10:07:31.654Z,30.33
2023-02-08T10:10:03.784Z,40.77
2023-02-08T10:12:45.183Z,28.63
2023-02-08T10:15:31.704Z,35.90
2023-02-08T10:18:19.469Z,38.47
2023-02-08T10:21:01.408Z,42.13
2023-02-08T10:23:45.045Z,35.73
2023-02-08T10:26:20.359Z,36.57
2023-02-08T10:29:24.601Z,33.70
2023-02-08T10:32:15.705Z,24.67
2023-02-08T10:34:48.360Z,33.37
2023-02-08T10:37:20.056Z,29.80
2023-02-08T10:39:51.051Z,30.00
2023-02-08T10:42:22.310Z,31.93
2023-02-08T10:44:58.874Z,20.73
2023-02-08T10:47:40.611Z,30.30
2023-02-08T10:50:16.990Z,29.87
2023-02-08T10:52:45.779Z,25.67
2023-02-08T10:55:16.320Z,24.63
2023-02-08T10:57:47.907Z,28.70
2023-02-08T11:00:22.319Z,28.50
2023-02-08T11:02:53.879Z,29.57
2023-02-08T11:05:33.462Z,30.80
2023-02-08T11:08:10.449Z,36.97
2023-02-08T11:10:41.167Z,29.77
2023-02-08T11:13:19.757Z,29.10
2023-02-08T11:15:51.865Z,27.17
2023-02-08T11:18:25.979Z,32.50
2023-02-08T11:20:57.566Z,26.57
2023-02-08T11:23:28.236Z,32.30
2023-02-08T11:26:15.263Z,35.60
2023-02-08T11:28:44.827Z,35.00
2023-02-08T11:31:19.870Z,28.43
2023-02-08T11:34:02.128Z,38.30
2023-02-08T11:36:32.941Z,26.77
2023-02-08T11:39:04.064Z,29.37
2023-02-08T11:41:33.443Z,28.90
2023-02-08T11:44:05.479Z,30.50
2023-02-08T11:46:36.913Z,33.03
2023-02-08T11:49:06.692Z,29.83
2023-02-08T11:51:37.426Z,31.17
2023-02-08T11:54:07.846Z,35.33
2023-02-08T11:56:36.867Z,29.93
2023-02-08T11:59:18.390Z,38.63
2023-02-08T12:01:47.437Z,28.50
2023-02-08T12:04:18.926Z,40.50
2023-02-08T12:07:18.040Z,28.80
2023-02-08T12:10:25.103Z,35.73
2023-02-08T12:13:18.537Z,40.77
2023-02-08T12:15:59.159Z,30.57
2023-02-08T12:18:47.827Z,35.97
2023-02-08T12:21:22.693Z,30.17
2023-02-08T12:23:55.806Z,34.27
2023-02-08T12:26:50.408Z,29.87
2023-02-08T12:29:48.109Z,31.60
2023-02-08T12:32:39.635Z,36.83
2023-02-08T12:35:48.179Z,41.03
2023-02-08T12:38:51.362Z,39.73
2023-02-08T12:41:24.038Z,43.60
2023-02-08T12:44:02.258Z,47.40
2023-02-08T12:46:56.804Z,52.10
2023-02-08T12:49:42.022Z,43.97
2023-02-08T12:52:25.245Z,41.83
2023-02-08T12:54:59.880Z,49.07
2023-02-08T12:57:31.948Z,52.13
2023-02-08T13:00:06.370Z,56.93
2023-02-08T13:02:46.121Z,47.83
2023-02-08T13:05:20.275Z,57.23
2023-02-08T13:07:51.611Z,52.67
2023-02-08T13:10:27.071Z,45.00
2023-02-08T13:12:59.621Z,49.63
2023-02-08T13:15:36.803Z,48.33
2023-02-08T13:18:15.073Z,49.20
2023-02-08T13:20:47.203Z,50.97
2023-02-08T13:23:22.365Z,47.53
2023-02-08T13:25:56.018Z,51.50
2023-02-08T13:28:26.535Z,42.40
2023-02-08T13:31:03.684Z,49.20
2023-02-08T13:33:46.592Z,51.27
2023-02-08T13:36:27.869Z,43.53
2023-02-08T13:38:59.352Z,54.40
2023-02-08T13:41:30.783Z,44.40
2023-02-08T13:44:02.673Z,48.30
2023-02-08T13:46:39.055Z,50.67
2023-02-08T13:49:07.834Z,45.30
2023-02-08T13:52:03.461Z,46.50
2023-02-08T13:54:32.146Z,48.50
2023-02-08T13:57:02.433Z,51.27
2023-02-08T13:59:37.959Z,45.00
2023-02-08T14:02:29.040Z,54.00
2023-02-08T14:05:35.272Z,45.30
2023-02-08T14:08:06.547Z,54.43
2023-02-08T14:10:42.057Z,50.13
2023-02-08T14:13:28.154Z,34.27
2023-02-08T14:16:28.987Z,45.40
2023-02-08T14:19:00.180Z,46.43
2023-02-08T14:21:34.227Z,43.63
2023-02-08T14:24:05.583Z,44.33
2023-02-08T14:26:36.467Z,49.50
2023-02-08T14:29:07.924Z,50.53
2023-02-08T14:31:43.420Z,48.87
2023-02-08T14:34:34.336Z,56.00
2023-02-08T14:37:07.347Z,59.60
2023-02-08T14:39:37.372Z,53.90
2023-02-08T14:42:09.017Z,60.50
2023-02-08T14:45:01.586Z,63.97
2023-02-08T14:48:12.148Z,53.27
2023-02-08T14:50:51.209Z,55.37
2023-02-08T14:53:33.060Z,68.63
2023-02-08T14:56:07.544Z,64.73
2023-02-08T14:58:39.329Z,66.83
2023-02-08T15:01:15.387Z,63.83
2023-02-08T15:03:45.349Z,76.87
2023-02-08T15:06:50.298Z,53.77
2023-02-08T15:09:21.695Z,50.03
2023-02-08T15:12:00.695Z,68.50
2023-02-08T15:14:31.294Z,66.00
2023-02-08T15:17:02.251Z,62.93
2023-02-08T15:19:35.156Z,58.77
2023-02-08T15:22:29.330Z,62.97
2023-02-08T15:25:01.518Z,52.40
2023-02-08T15:27:32.852Z,58.20
2023-02-08T15:30:02.314Z,66.60
2023-02-08T15:32:32.253Z,71.20
2023-02-08T15:35:03.345Z,79.50
2023-02-08T15:37:35.273Z,74.60
2023-02-08T15:40:05.194Z,61.93
2023-02-08T15:42:35.362Z,68.70
2023-02-08T15:45:04.699Z,81.47
2023-02-08T15:47:37.942Z,64.63
2023-02-08T15:50:09.368Z,59.00
2023-02-08T15:52:38.361Z,77.13
2023-02-08T15:55:08.907Z,62.47
2023-02-08T15:57:44.009Z,68.73
2023-02-08T16:00:17.604Z,77.47
2023-02-08T16:02:52.663Z,66.83
2023-02-08T16:05:24.414Z,79.53
2023-02-08T16:07:53.114Z,81.53
2023-02-08T16:10:26.442Z,74.13
2023-02-08T16:12:57.784Z,66.03
2023-02-08T16:15:44.941Z,64.57
2023-02-08T16:18:36.180Z,65.07
2023-02-08T16:21:07.354Z,65.33
2023-02-08T16:23:39.751Z,60.40
2023-02-08T16:26:17.123Z,64.20
2023-02-08T16:28:52.398Z,72.33
2023-02-08T16:31:24.734Z,64.37
2023-02-08T16:34:01.451Z,62.40
2023-02-08T16:36:34.812Z,74.10
2023-02-08T16:39:46.828Z,71.20
2023-02-08T16:42:40.936Z,62.37
2023-02-08T16:45:20.412Z,74.07
2023-02-08T16:47:52.622Z,65.70
2023-02-08T16:50:24.713Z,70.17
2023-02-08T16:52:56.109Z,66.67
2023-02-08T16:55:27.546Z,70.10
2023-02-08T16:57:57.784Z,72.67
2023-02-08T17:00:28.094Z,72.77
2023-02-08T17:02:57.523Z,70.30
2023-02-08T17:05:30.612Z,76.03
2023-02-08T17:08:00.411Z,79.70
2023-02-08T17:10:31.407Z,71.33
2023-02-08T17:13:18.863Z,80.67
2023-02-08T17:15:49.946Z,66.27
2023-02-08T17:18:18.971Z,73.53
2023-02-08T17:20:48.967Z,88.10
2023-02-08T17:23:18.104Z,69.90
2023-02-08T17:25:46.763Z,76.80
2023-02-08T17:28:18.762Z,75.07
2023-02-08T17:30:48.540Z,72.30
2023-02-08T17:33:21.141Z,80.30
2023-02-08T17:35:52.833Z,81.83
2023-02-08T17:38:22.338Z,65.93
2023-02-08T17:40:51.285Z,72.20
2023-02-08T17:43:19.999Z,63.13
2023-02-08T17:45:48.453Z,74.87
2023-02-08T17:48:17.232Z,77.33
2023-02-08T17:50:50.914Z,69.10
2023-02-08T17:53:21.145Z,72.77
2023-02-08T17:55:49.950Z,73.07
2023-02-08T17:58:18.737Z,75.10
2023-02-08T18:00:47.483Z,85.70
2023-02-08T18:03:17.237Z,80.70
2023-02-08T18:05:46.107Z,87.40
2023-02-08T18:08:14.844Z,67.77
2023-02-08T18:10:45.156Z,70.47
2023-02-08T18:13:13.779Z,70.83
2023-02-08T18:15:43.021Z,81.60
2023-02-08T18:18:11.900Z,74.20
2023-02-08T18:20:44.618Z,72.33
2023-02-08T18:23:13.111Z,60.47
2023-02-08T18:25:42.634Z,80.37
2023-02-08T18:28:15.182Z,64.40
2023-02-08T18:30:44.188Z,67.67
2023-02-08T18:33:13.663Z,69.67
2023-02-08T18:35:48.575Z,58.07
2023-02-08T18:38:16.934Z,66.23
2023-02-08T18:40:45.579Z,72.27
2023-02-08T18:43:15.353Z,56.33
2023-02-08T18:45:45.852Z,68.93
2023-02-08T18:48:14.730Z,72.70
2023-02-08T18:50:43.786Z,68.00
2023-02-08T18:53:12.232Z,74.33
2023-02-08T18:55:41.069Z,56.17
2023-02-08T18:58:09.529Z,64.33
2023-02-08T19:00:40.376Z,61.73
2023-02-08T19:03:10.021Z,67.77
2023-02-08T19:05:39.237Z,70.20
2023-02-08T19:08:07.696Z,64.93
2023-02-08T19:10:37.064Z,64.90
2023-02-08T19:13:07.617Z,69.37
2023-02-08T19:15:38.021Z,60.60
2023-02-08T19:18:08.894Z,70.97
2023-02-08T19:20:38.931Z,62.30
2023-02-08T19:23:07.672Z,65.10
2023-02-08T19:25:39.278Z,106.20
2023-02-08T19:28:08.004Z,65.50
2023-02-08T19:30:36.825Z,66.40
2023-02-08T19:33:05.360Z,65.07
2023-02-08T19:35:39.349Z,67.50
2023-02-08T19:38:07.774Z,70.90
2023-02-08T19:40:36.514Z,64.47
2023-02-08T19:43:05.027Z,62.63
2023-02-08T19:45:35.602Z,60.17
2023-02-08T19:48:04.288Z,58.77
2023-02-08T19:50:33.089Z,71.93
2023-02-08T19:53:03.030Z,68.37
2023-02-08T19:55:31.953Z,69.47
2023-02-08T19:58:00.478Z,74.47
2023-02-08T20:00:29.297Z,67.90
2023-02-08T20:02:57.839Z,58.27
2023-02-08T20:05:26.664Z,69.73
2023-02-08T20:07:55.219Z,56.63
2023-02-08T20:10:25.340Z,61.90
2023-02-08T20:12:53.753Z,64.70
2023-02-08T20:15:22.509Z,69.60
2023-02-08T20:17:51.034Z,70.67
2023-02-08T20:20:21.391Z,62.50
2023-02-08T20:22:49.888Z,65.53
2023-02-08T20:25:18.827Z,64.90
2023-02-08T20:27:48.655Z,72.03
2023-02-08T20:30:18.286Z,59.93
2023-02-08T20:32:47.228Z,69.80
2023-02-08T20:35:16.420Z,67.70
2023-02-08T20:37:45.218Z,69.27
2023-02-08T20:40:16.076Z,67.17
2023-02-08T20:42:44.662Z,68.40
2023-02-08T20:45:15.409Z,70.13
2023-02-08T20:47:46.800Z,69.60
2023-02-08T20:50:19.484Z,71.13
2023-02-08T20:52:49.347Z,65.07
2023-02-08T20:55:18.211Z,69.57
2023-02-08T20:57:46.832Z,77.07
2023-02-08T21:00:17.815Z,80.20
2023-02-08T21:02:46.399Z,67.03
2023-02-08T21:05:15.351Z,79.50
2023-02-08T21:07:43.873Z,69.57
2023-02-08T21:10:12.566Z,71.57
2023-02-08T21:12:41.035Z,69.97
2023-02-08T21:15:10.705Z,78.50
2023-02-08T21:17:41.177Z,77.13
2023-02-08T21:20:12.009Z,68.73
2023-02-08T21:22:41.875Z,72.27
2023-02-08T21:25:10.941Z,66.47
2023-02-08T21:27:39.373Z,72.03
2023-02-08T21:30:09.069Z,82.17
2023-02-08T21:32:37.604Z,66.90
2023-02-08T21:35:08.490Z,66.90
2023-02-08T21:37:36.930Z,72.57
2023-02-08T21:40:06.435Z,71.13
2023-02-08T21:42:34.968Z,63.97
2023-02-08T21:45:03.683Z,66.07
2023-02-08T21:47:32.084Z,58.83
2023-02-08T21:50:18.332Z,70.57
2023-02-08T21:53:05.468Z,74.80
2023-02-08T21:55:34.176Z,71.57
2023-02-08T21:58:02.611Z,73.27
2023-02-08T22:00:31.412Z,82.83
2023-02-08T22:02:59.985Z,75.90
2023-02-08T22:05:28.921Z,65.87
2023-02-08T22:08:00.324Z,70.83
2023-02-08T22:10:31.669Z,77.03
2023-02-08T22:13:00.421Z,72.60
2023-02-08T22:15:30.931Z,89.33
2023-02-08T22:18:01.610Z,71.63
2023-02-08T22:20:31.531Z,76.97
2023-02-08T22:23:01.881Z,80.07
2023-02-08T22:25:31.016Z,71.53
2023-02-08T22:27:59.472Z,78.17
2023-02-08T22:30:28.416Z,64.50
2023-02-08T22:32:56.921Z,70.90
2023-02-08T22:35:25.657Z,69.47
2023-02-08T22:37:54.279Z,71.87
2023-02-08T22:40:24.412Z,81.10
2023-02-08T22:42:52.966Z,63.73
2023-02-08T22:45:21.752Z,74.40
2023-02-08T22:47:50.192Z,78.93
2023-02-08T22:50:18.944Z,62.60
2023-02-08T22:52:47.445Z,74.07
2023-02-08T22:55:16.130Z,83.33
2023-02-08T22:57:46.055Z,67.33
2023-02-08T23:00:16.293Z,81.03
2023-02-08T23:02:44.967Z,75.00
2023-02-08T23:05:14.494Z,69.80
2023-02-08T23:07:43.064Z,67.57
2023-02-08T23:10:12.851Z,80.70
2023-02-08T23:12:41.401Z,74.03
2023-02-08T23:15:12.965Z,70.07
2023-02-08T23:17:41.616Z,83.77
2023-02-08T23:20:11.388Z,66.50
2023-02-08T23:22:39.876Z,72.27
2023-02-08T23:25:08.920Z,70.53
2023-02-08T23:27:37.441Z,61.30
2023-02-08T23:30:09.506Z,71.00
2023-02-08T23:32:39.767Z,73.27
2023-02-08T23:35:10.288Z,67.53
2023-02-08T23:37:39.905Z,75.27
2023-02-08T23:40:09.571Z,67.03
2023-02-08T23:42:38.056Z,66.07
2023-02-08T23:45:07.671Z,61.50
2023-02-08T23:47:36.469Z,63.73
2023-02-08T23:50:07.024Z,70.13
2023-02-08T23:52:36.627Z,61.67
2023-02-08T23:55:06.732Z,71.30
2023-02-08T23:57:37.055Z,75.87
